createdAt,value
2018-01-31T01:52:21.053Z,100527.71
2018-01-31T01:54:32.912Z,100528.83
2018-01-31T01:56:59.115Z,100522.19
2018-01-31T01:59:25.363Z,100532.71
2018-01-31T02:01:51.689Z,100531.69
2018-01-31T02:04:17.942Z,100530.83
2018-01-31T02:06:44.249Z,100533.81
2018-01-31T02:09:10.454Z,100536.24
2018-01-31T02:11:36.679Z,100527.23
2018-01-31T02:14:03.014Z,100525.75
2018-01-31T02:16:29.210Z,100533.80
2018-01-31T02:18:55.419Z,100537.66
2018-01-31T02:21:21.860Z,100534.75
2018-01-31T02:23:48.088Z,100532.34
2018-01-31T02:26:14.320Z,100529.40
2018-01-31T02:28:40.571Z,100522.05
2018-01-31T02:31:06.775Z,100517.02
2018-01-31T02:33:32.996Z,100526.05
2018-01-31T02:35:59.247Z,100525.30
2018-01-31T02:38:46.395Z,100530.62
2018-01-31T02:41:12.559Z,100524.42
2018-01-31T02:43:38.873Z,100518.80
2018-01-31T02:46:05.119Z,100530.17
2018-01-31T02:48:31.363Z,100529.31
2018-01-31T02:50:57.661Z,100522.56
2018-01-31T02:53:23.862Z,100522.45
2018-01-31T02:55:50.220Z,100518.84
2018-01-31T02:58:16.474Z,100517.84
2018-01-31T03:00:42.780Z,100516.53
2018-01-31T03:03:09.008Z,100514.30
2018-01-31T03:05:35.339Z,100517.42
2018-01-31T03:08:01.571Z,100506.40
2018-01-31T03:10:27.806Z,100503.34
2018-01-31T03:12:54.175Z,100509.03
2018-01-31T03:15:20.431Z,100511.84
2018-01-31T03:17:46.659Z,100511.52
2018-01-31T03:20:13.020Z,100505.48
2018-01-31T03:22:39.278Z,100519.62
2018-01-31T03:25:05.577Z,100521.44
2018-01-31T03:27:31.840Z,100516.58
2018-01-31T03:29:58.067Z,100517.06
2018-01-31T03:32:24.294Z,100521.62
2018-01-31T03:34:50.543Z,100523.98
2018-01-31T03:37:16.763Z,100521.35
2018-01-31T03:39:42.983Z,100518.26
2018-01-31T03:42:09.207Z,100522.61
2018-01-31T03:44:35.403Z,100520.05
2018-01-31T03:47:01.667Z,100522.61
2018-01-31T03:49:27.911Z,100524.73
2018-01-31T03:51:54.127Z,100533.16
2018-01-31T03:54:20.347Z,100538.14
2018-01-31T03:56:46.615Z,100535.16
2018-01-31T03:59:12.829Z,100535.39
2018-01-31T04:01:39.034Z,100534.26
2018-01-31T04:04:05.271Z,100537.33
2018-01-31T04:06:31.495Z,100541.42
2018-01-31T04:08:57.812Z,100545.07
2018-01-31T04:11:24.383Z,100540.83
2018-01-31T04:13:50.598Z,100544.86
2018-01-31T04:16:16.811Z,100548.74
2018-01-31T04:18:43.099Z,100548.73
2018-01-31T04:21:09.295Z,100550.97
2018-01-31T04:23:35.498Z,100552.33
2018-01-31T04:26:01.739Z,100550.47
2018-01-31T04:28:28.029Z,100549.05
2018-01-31T04:30:54.284Z,100551.78
2018-01-31T04:33:20.491Z,100560.02
2018-01-31T04:35:46.694Z,100559.48
2018-01-31T04:38:12.942Z,100564.34
2018-01-31T04:40:39.142Z,100559.75
2018-01-31T04:43:05.335Z,100566.77
2018-01-31T04:45:31.628Z,100569.01
2018-01-31T04:47:57.839Z,100570.27
2018-01-31T04:50:24.058Z,100567.67
2018-01-31T04:52:50.263Z,100575.52
2018-01-31T04:55:16.503Z,100575.19
2018-01-31T04:57:42.743Z,100585.49
2018-01-31T05:00:08.939Z,100587.81
2018-01-31T05:02:35.159Z,100581.23
2018-01-31T05:05:01.395Z,100585.73
2018-01-31T05:07:27.648Z,100587.72
2018-01-31T05:09:53.846Z,100583.02
2018-01-31T05:12:20.142Z,100588.35
2018-01-31T05:14:46.478Z,100583.75
2018-01-31T05:17:12.675Z,100590.63
2018-01-31T05:19:38.936Z,100588.02
2018-01-31T05:22:05.206Z,100598.21
2018-01-31T05:24:31.507Z,100603.56
2018-01-31T05:26:57.856Z,100609.14
2018-01-31T05:29:24.207Z,100613.10
2018-01-31T05:31:50.419Z,100616.02
2018-01-31T05:34:16.679Z,100622.78
2018-01-31T05:36:42.943Z,100625.64
2018-01-31T05:39:09.151Z,100627.81
2018-01-31T05:41:35.395Z,100632.77
2018-01-31T05:44:01.603Z,100624.84
2018-01-31T05:46:27.819Z,100625.45
2018-01-31T05:48:54.031Z,100624.38
2018-01-31T05:51:20.346Z,100625.53
2018-01-31T05:53:46.619Z,100627.98
2018-01-31T05:56:12.835Z,100627.66
2018-01-31T05:58:39.228Z,100645.52
2018-01-31T06:01:05.478Z,100644.28
2018-01-31T06:03:31.699Z,100648.46
2018-01-31T06:05:57.910Z,100643.92
2018-01-31T06:08:24.163Z,100654.27
2018-01-31T06:10:50.427Z,100670.15
2018-01-31T06:13:16.623Z,100670.51
2018-01-31T06:15:42.879Z,100674.94
2018-01-31T06:18:09.173Z,100673.44
2018-01-31T06:20:35.507Z,100679.39
2018-01-31T06:23:02.177Z,100676.12
2018-01-31T06:25:28.463Z,100675.66
2018-01-31T06:27:54.686Z,100684.22
2018-01-31T06:30:20.934Z,100680.77
2018-01-31T06:32:47.143Z,100678.86
2018-01-31T06:35:13.371Z,100681.30
2018-01-31T06:37:39.647Z,100679.16
2018-01-31T06:40:05.866Z,100679.83
2018-01-31T06:42:32.132Z,100677.98
2018-01-31T06:44:58.387Z,100677.11
2018-01-31T06:47:24.619Z,100679.33
2018-01-31T06:49:50.851Z,100670.91
2018-01-31T06:52:17.071Z,100675.66
2018-01-31T06:54:43.345Z,100678.59
2018-01-31T06:57:09.555Z,100683.19
2018-01-31T06:59:35.766Z,100694.01
2018-01-31T07:02:01.991Z,100687.77
2018-01-31T07:04:28.227Z,100687.30
2018-01-31T07:06:54.530Z,100690.52
2018-01-31T07:09:20.983Z,100695.30
2018-01-31T07:11:47.286Z,100691.42
2018-01-31T07:14:13.512Z,100699.02
2018-01-31T07:16:39.844Z,100699.66
2018-01-31T07:19:06.260Z,100696.09
2018-01-31T07:21:32.484Z,100692.00
2018-01-31T07:23:59.075Z,100698.31
2018-01-31T07:26:25.335Z,100690.56
2018-01-31T07:28:51.551Z,100704.58
2018-01-31T07:31:17.763Z,100698.60
2018-01-31T07:33:44.011Z,100693.89
2018-01-31T07:36:10.223Z,100692.05
2018-01-31T07:38:36.451Z,100692.21
2018-01-31T07:41:02.819Z,100692.59
2018-01-31T07:43:29.016Z,100692.06
2018-01-31T07:45:55.304Z,100692.83
2018-01-31T07:48:21.562Z,100685.76
2018-01-31T07:50:47.779Z,100686.03
2018-01-31T07:53:14.019Z,100691.21
2018-01-31T07:55:40.243Z,100692.66
2018-01-31T07:58:06.483Z,100691.58
2018-01-31T08:00:32.850Z,100680.98
2018-01-31T08:02:59.064Z,100675.59
2018-01-31T08:05:25.303Z,100677.17
2018-01-31T08:07:51.539Z,100679.02
2018-01-31T08:10:17.767Z,100678.31
2018-01-31T08:12:44.106Z,100682.95
2018-01-31T08:15:10.319Z,100680.77
2018-01-31T08:17:36.527Z,100676.22
2018-01-31T08:20:02.835Z,100678.92
2018-01-31T08:22:29.058Z,100675.61
2018-01-31T08:24:55.286Z,100673.90
2018-01-31T08:27:21.597Z,100668.78
2018-01-31T08:29:47.842Z,100670.70
2018-01-31T08:32:14.156Z,100672.25
2018-01-31T08:34:40.427Z,100671.39
2018-01-31T08:37:06.643Z,100676.38
2018-01-31T08:39:32.895Z,100677.98
2018-01-31T08:41:59.156Z,100676.22
2018-01-31T08:44:25.375Z,100674.30
2018-01-31T08:46:51.603Z,100671.44
2018-01-31T08:49:17.961Z,100672.11
2018-01-31T08:51:44.165Z,100666.12
2018-01-31T08:54:10.347Z,100666.91
2018-01-31T08:56:36.559Z,100662.84
2018-01-31T08:59:02.823Z,100664.37
2018-01-31T09:01:29.044Z,100661.08
2018-01-31T09:03:55.203Z,100672.19
2018-01-31T09:06:21.371Z,100663.30
2018-01-31T09:08:47.559Z,100668.69
2018-01-31T09:11:13.706Z,100661.80
2018-01-31T09:13:39.871Z,100658.98
2018-01-31T09:16:06.039Z,100648.68
2018-01-31T09:18:32.243Z,100651.30
2018-01-31T09:20:58.474Z,100649.27
2018-01-31T09:23:24.676Z,100652.31
2018-01-31T09:25:51.059Z,100644.58
2018-01-31T09:28:17.283Z,100639.73
2018-01-31T09:30:43.442Z,100642.69
2018-01-31T09:33:09.628Z,100635.84
2018-01-31T09:35:35.867Z,100636.27
2018-01-31T09:38:02.199Z,100629.03
2018-01-31T09:40:28.398Z,100628.17
2018-01-31T09:42:54.745Z,100620.02
2018-01-31T09:45:21.230Z,100619.58
2018-01-31T09:47:47.393Z,100607.56
2018-01-31T09:50:13.877Z,100607.02
2018-01-31T09:52:40.055Z,100602.41
2018-01-31T09:55:06.210Z,100595.74
2018-01-31T09:57:32.407Z,100589.52
2018-01-31T09:59:58.559Z,100594.41
2018-01-31T10:02:24.712Z,100591.76
2018-01-31T10:04:51.051Z,100589.37
2018-01-31T10:07:17.227Z,100586.77
2018-01-31T10:09:44.271Z,100585.22
2018-01-31T10:12:10.502Z,100577.80
2018-01-31T10:14:37.542Z,100569.58
2018-01-31T10:17:03.901Z,100572.37
2018-01-31T10:19:30.190Z,100574.48
2018-01-31T10:21:56.344Z,100566.50
2018-01-31T10:24:22.588Z,100564.20
2018-01-31T10:26:48.960Z,100565.84
2018-01-31T10:29:15.575Z,100558.82
2018-01-31T10:31:42.758Z,100558.14
2018-01-31T10:34:09.629Z,100550.39
2018-01-31T10:36:36.022Z,100545.86
2018-01-31T10:39:02.214Z,100545.73
2018-01-31T10:41:28.603Z,100543.12
2018-01-31T10:43:54.755Z,100539.05
2018-01-31T10:46:21.055Z,100538.14
2018-01-31T10:48:47.249Z,100534.20
2018-01-31T10:51:13.407Z,100530.05
2018-01-31T10:58:32.074Z,100511.34
2018-01-31T11:00:58.415Z,100495.78
2018-01-31T11:03:24.737Z,100503.22
2018-01-31T11:05:51.027Z,100502.66
2018-01-31T11:08:17.766Z,100494.13
2018-01-31T11:10:44.155Z,100492.33
2018-01-31T11:13:10.685Z,100487.69
2018-01-31T11:15:36.923Z,100473.05
2018-01-31T11:18:03.110Z,100481.98
2018-01-31T11:20:29.262Z,100474.55
2018-01-31T11:22:55.451Z,100477.73
2018-01-31T11:25:21.705Z,100479.52
2018-01-31T11:27:47.915Z,100469.31
2018-01-31T11:30:14.094Z,100459.80
2018-01-31T11:32:40.320Z,100454.45
2018-01-31T11:35:06.490Z,100454.13
2018-01-31T11:37:32.674Z,100448.55
2018-01-31T11:39:58.874Z,100443.39
2018-01-31T11:42:25.059Z,100445.81
2018-01-31T11:44:51.399Z,100433.09
2018-01-31T11:47:17.634Z,100432.69
2018-01-31T11:49:43.814Z,100434.52
2018-01-31T11:52:10.054Z,100424.16
2018-01-31T11:54:36.477Z,100417.31
2018-01-31T11:57:02.879Z,100412.27
2018-01-31T11:59:29.083Z,100410.19
2018-01-31T12:01:55.283Z,100398.52
2018-01-31T12:04:21.447Z,100388.86
2018-01-31T12:06:47.810Z,100397.09
2018-01-31T12:09:20.167Z,100394.59
2018-01-31T12:11:46.479Z,100388.67
2018-01-31T12:14:18.951Z,100380.50
2018-01-31T12:16:53.843Z,100379.94
2018-01-31T12:19:26.159Z,100372.07
2018-01-31T12:21:52.415Z,100373.68
2018-01-31T12:24:25.091Z,100368.81
2018-01-31T12:27:09.337Z,100364.34
2018-01-31T12:29:48.398Z,100362.86
2018-01-31T12:32:20.736Z,100359.53
2018-01-31T12:34:52.878Z,100358.11
2018-01-31T12:37:24.948Z,100346.03
2018-01-31T12:39:50.906Z,100349.42
2018-01-31T12:42:16.931Z,100348.17
2018-01-31T12:44:43.722Z,100344.69
2018-01-31T12:47:15.687Z,100340.09
2018-01-31T12:49:47.692Z,100335.33
2018-01-31T12:52:28.570Z,100333.08
2018-01-31T12:55:00.759Z,100329.63
2018-01-31T12:57:29.991Z,100325.17
2018-01-31T13:00:02.227Z,100324.71
2018-01-31T13:15:54.758Z,100301.37
2018-01-31T13:18:27.011Z,100296.98
2018-01-31T13:20:59.222Z,100300.74
2018-01-31T13:23:25.390Z,100298.06
2018-01-31T13:25:57.797Z,100293.47
2018-01-31T13:28:36.011Z,100300.41
2018-01-31T13:31:15.231Z,100293.70
2018-01-31T13:33:47.355Z,100293.73
2018-01-31T13:36:19.487Z,100289.42
2018-01-31T13:38:51.708Z,100279.84
2018-01-31T13:41:23.776Z,100288.06
2018-01-31T13:43:56.214Z,100284.72
2018-01-31T13:46:28.248Z,100276.55
2018-01-31T13:49:11.155Z,100278.36
2018-01-31T13:51:43.196Z,100280.69
2018-01-31T13:54:15.222Z,100277.37
2018-01-31T13:56:47.379Z,100268.28
2018-01-31T13:59:19.395Z,100267.72
2018-01-31T14:01:51.664Z,100262.95
2018-01-31T14:04:23.896Z,100267.20
2018-01-31T14:06:55.984Z,100262.74
2018-01-31T14:09:28.288Z,100262.45
2018-01-31T14:12:00.474Z,100258.12
2018-01-31T14:14:32.502Z,100255.87
2018-01-31T14:17:04.519Z,100250.78
2018-01-31T14:19:36.590Z,100247.44
2018-01-31T14:22:08.650Z,100247.22
2018-01-31T14:24:40.838Z,100245.33
2018-01-31T14:27:12.995Z,100241.61
2018-01-31T14:29:45.135Z,100239.34
2018-01-31T14:32:17.288Z,100232.31
2018-01-31T14:34:49.507Z,100230.32
2018-01-31T14:37:15.422Z,100228.00
2018-01-31T14:39:41.319Z,100217.04
2018-01-31T14:42:07.231Z,100224.13
2018-01-31T14:44:33.151Z,100216.95
2018-01-31T14:46:59.106Z,100223.19
2018-01-31T14:49:25.006Z,100220.92
2018-01-31T14:51:50.890Z,100226.74
2018-01-31T14:54:17.018Z,100225.14
2018-01-31T14:56:42.927Z,100222.78
2018-01-31T14:59:08.814Z,100228.58
2018-01-31T15:01:34.711Z,100224.77
2018-01-31T15:04:00.663Z,100222.91
2018-01-31T15:06:26.554Z,100220.25
2018-01-31T15:08:52.455Z,100216.95
2018-01-31T15:11:18.460Z,100222.19
2018-01-31T15:13:44.484Z,100219.48
2018-01-31T15:16:10.418Z,100220.91
2018-01-31T15:18:36.480Z,100224.53
2018-01-31T15:21:02.431Z,100216.91
2018-01-31T15:23:28.363Z,100223.02
2018-01-31T15:25:54.262Z,100222.47
2018-01-31T15:28:20.194Z,100221.84
2018-01-31T15:30:46.120Z,100220.05
2018-01-31T15:33:12.035Z,100225.00
2018-01-31T15:35:37.991Z,100224.53
2018-01-31T15:38:03.903Z,100223.87
2018-01-31T15:40:29.800Z,100226.64
2018-01-31T15:42:55.848Z,100228.39
2018-01-31T15:45:21.742Z,100224.44
2018-01-31T15:47:47.775Z,100222.34
2018-01-31T15:50:13.714Z,100224.66
2018-01-31T15:52:39.610Z,100223.52
2018-01-31T15:55:05.541Z,100220.06
2018-01-31T15:57:31.464Z,100223.73
2018-01-31T15:59:57.397Z,100219.09
2018-01-31T16:02:23.295Z,100219.76
2018-01-31T16:04:49.198Z,100216.91
2018-01-31T16:07:15.266Z,100212.73
2018-01-31T16:09:41.167Z,100212.73
2018-01-31T16:12:07.088Z,100213.75
2018-01-31T16:14:33.133Z,100215.34
2018-01-31T16:16:59.180Z,100223.37
2018-01-31T16:19:31.146Z,100221.00
2018-01-31T16:21:57.264Z,100213.23
2018-01-31T16:24:23.326Z,100218.19
2018-01-31T16:26:49.492Z,100217.53
2018-01-31T16:29:27.669Z,100213.34
2018-01-31T16:31:59.604Z,100216.18
2018-01-31T16:34:25.633Z,100220.81
2018-01-31T16:36:51.723Z,100220.08
2018-01-31T16:39:17.842Z,100216.22
2018-01-31T16:41:43.883Z,100217.27
2018-01-31T16:44:09.999Z,100219.53
2018-01-31T16:46:36.047Z,100217.59
2018-01-31T16:49:02.071Z,100217.73
2018-01-31T16:51:28.191Z,100215.42
2018-01-31T16:53:54.312Z,100220.86
2018-01-31T16:56:20.387Z,100213.87
2018-01-31T16:58:46.406Z,100215.72
2018-01-31T17:01:12.459Z,100214.09
2018-01-31T17:03:38.531Z,100212.64
2018-01-31T17:06:04.630Z,100210.02
2018-01-31T17:08:30.658Z,100212.84
2018-01-31T17:10:56.738Z,100215.77
2018-01-31T17:13:22.762Z,100216.83
2018-01-31T17:15:48.913Z,100212.65
2018-01-31T17:18:15.257Z,100214.18
2018-01-31T17:20:42.442Z,100215.92
2018-01-31T17:23:08.624Z,100221.41
2018-01-31T17:25:34.973Z,100215.69
2018-01-31T17:28:01.387Z,100211.84
2018-01-31T17:30:27.602Z,100214.76
2018-01-31T17:32:53.811Z,100214.13
2018-01-31T17:35:20.006Z,100206.77
2018-01-31T17:37:46.176Z,100206.53
2018-01-31T17:40:12.342Z,100207.70
2018-01-31T17:42:38.554Z,100210.05
2018-01-31T17:45:04.738Z,100205.05
2018-01-31T17:47:30.924Z,100201.43
2018-01-31T17:49:57.388Z,100198.34
2018-01-31T17:52:23.855Z,100197.53
2018-01-31T17:54:50.241Z,100198.08
2018-01-31T17:57:16.625Z,100193.55
2018-01-31T17:59:43.016Z,100193.92
2018-01-31T18:02:09.381Z,100196.17
2018-01-31T18:04:35.781Z,100191.20
2018-01-31T18:07:02.149Z,100186.92
2018-01-31T18:09:28.590Z,100183.19
2018-01-31T18:11:54.956Z,100176.89
2018-01-31T18:14:21.379Z,100181.95
2018-01-31T18:16:47.783Z,100180.61
2018-01-31T18:19:14.141Z,100178.20
2018-01-31T18:21:40.529Z,100184.91
2018-01-31T18:24:07.951Z,100177.69
2018-01-31T18:26:34.293Z,100178.55
2018-01-31T18:29:00.668Z,100179.65
2018-01-31T18:31:27.069Z,100182.67
2018-01-31T18:33:53.558Z,100182.84
2018-01-31T18:36:19.961Z,100178.67
2018-01-31T18:38:46.395Z,100176.41
2018-01-31T18:41:12.767Z,100174.75
2018-01-31T18:43:39.165Z,100170.25
2018-01-31T18:46:07.333Z,100180.76
2018-01-31T18:48:33.688Z,100177.66
2018-01-31T18:51:00.074Z,100171.52
2018-01-31T18:53:26.489Z,100175.55
2018-01-31T18:55:52.839Z,100173.27
2018-01-31T18:58:19.198Z,100169.73
2018-01-31T19:00:45.627Z,100174.98
2018-01-31T19:03:11.988Z,100182.83
2018-01-31T19:05:38.340Z,100176.66
2018-01-31T19:08:05.505Z,100180.33
2018-01-31T19:10:31.928Z,100175.94
2018-01-31T19:12:58.376Z,100174.98
2018-01-31T19:15:24.762Z,100173.66
2018-01-31T19:17:51.133Z,100175.23
2018-01-31T19:20:17.549Z,100172.95
2018-01-31T19:22:43.892Z,100165.43
2018-01-31T19:25:10.264Z,100167.19
2018-01-31T19:27:36.693Z,100169.27
2018-01-31T19:30:03.644Z,100160.91
2018-01-31T19:32:29.985Z,100159.16
2018-01-31T19:34:56.384Z,100158.09
2018-01-31T19:37:22.779Z,100160.38
2018-01-31T19:39:49.131Z,100155.89
2018-01-31T19:42:15.575Z,100162.02
2018-01-31T19:44:43.301Z,100161.21
2018-01-31T19:47:09.644Z,100152.68
2018-01-31T19:49:36.068Z,100158.86
2018-01-31T19:52:02.416Z,100155.82
2018-01-31T19:54:28.761Z,100158.98
2018-01-31T19:56:55.160Z,100156.61
2018-01-31T19:59:21.512Z,100145.59
2018-01-31T20:01:47.876Z,100142.34
2018-01-31T20:04:14.271Z,100146.30
2018-01-31T20:06:40.627Z,100140.84
2018-01-31T20:09:06.992Z,100138.43
2018-01-31T20:11:33.444Z,100135.80
2018-01-31T20:13:59.955Z,100137.12
2018-01-31T20:16:26.348Z,100144.70
2018-01-31T20:18:52.691Z,100142.63
2018-01-31T20:21:19.132Z,100142.23
2018-01-31T20:23:45.513Z,100140.59
2018-01-31T20:26:11.889Z,100136.30
2018-01-31T20:28:38.247Z,100132.11
2018-01-31T20:31:04.611Z,100128.66
2018-01-31T20:33:30.992Z,100117.06
2018-01-31T20:35:57.340Z,100117.42
2018-01-31T20:38:23.684Z,100119.01
2018-01-31T20:40:50.029Z,100115.60
2018-01-31T20:43:16.358Z,100112.50
2018-01-31T20:45:42.768Z,100115.05
2018-01-31T20:48:09.168Z,100112.33
2018-01-31T20:50:35.525Z,100114.30
2018-01-31T20:53:01.907Z,100125.70
2018-01-31T20:55:28.280Z,100112.38
2018-01-31T20:57:54.619Z,100121.25
2018-01-31T21:00:21.000Z,100114.52
2018-01-31T21:02:47.349Z,100113.97
2018-01-31T21:05:14.338Z,100107.97
2018-01-31T21:07:40.745Z,100109.60
2018-01-31T21:10:07.168Z,100108.86
2018-01-31T21:12:33.508Z,100102.83
2018-01-31T21:14:59.847Z,100098.10
2018-01-31T21:17:26.308Z,100089.41
2018-01-31T21:19:52.700Z,100085.38
2018-01-31T21:22:19.049Z,100092.63
2018-01-31T21:24:45.447Z,100089.24
2018-01-31T21:27:11.859Z,100087.19
2018-01-31T21:29:38.243Z,100083.23
2018-01-31T21:32:04.643Z,100083.27
2018-01-31T21:34:30.984Z,100085.78
2018-01-31T21:36:57.324Z,100083.17
2018-01-31T21:39:23.814Z,100082.80
2018-01-31T21:41:50.144Z,100082.52
2018-01-31T21:44:16.527Z,100084.63
2018-01-31T21:46:42.910Z,100078.91
2018-01-31T21:49:09.279Z,100084.02
2018-01-31T21:51:35.608Z,100083.38
2018-01-31T21:54:01.976Z,100084.17
2018-01-31T21:56:28.318Z,100079.11
2018-01-31T21:58:54.660Z,100083.09
2018-01-31T22:01:21.023Z,100081.42
2018-01-31T22:03:47.430Z,100077.20
2018-01-31T22:06:13.775Z,100075.66
2018-01-31T22:08:40.142Z,100080.81
2018-01-31T22:11:06.496Z,100084.19
2018-01-31T22:13:32.871Z,100079.62
2018-01-31T22:15:59.204Z,100078.38
2018-01-31T22:18:25.555Z,100077.37
2018-01-31T22:20:51.928Z,100077.94
2018-01-31T22:23:18.256Z,100073.06
2018-01-31T22:25:44.597Z,100077.01
2018-01-31T22:28:10.943Z,100072.96
2018-01-31T22:30:37.274Z,100074.09
2018-01-31T22:33:03.658Z,100082.32
2018-01-31T22:35:29.999Z,100071.28
2018-01-31T22:37:56.334Z,100074.83
2018-01-31T22:40:22.720Z,100077.68
2018-01-31T22:42:49.059Z,100072.09
2018-01-31T22:45:15.379Z,100072.79
2018-01-31T22:47:41.755Z,100069.88
2018-01-31T22:50:08.087Z,100071.40
2018-01-31T22:52:34.424Z,100078.56
2018-01-31T22:55:00.863Z,100077.51
2018-01-31T22:57:27.239Z,100073.54
2018-01-31T22:59:53.561Z,100073.11
2018-01-31T23:02:19.912Z,100076.59
2018-01-31T23:04:46.247Z,100072.22
2018-01-31T23:07:12.648Z,100072.62
2018-01-31T23:09:38.980Z,100066.50
2018-01-31T23:12:11.255Z,100060.81
2018-01-31T23:14:43.722Z,100061.55
2018-01-31T23:17:10.092Z,100058.80
2018-01-31T23:19:36.423Z,100055.21
2018-01-31T23:22:02.791Z,100047.73
2018-01-31T23:24:29.107Z,100047.29
2018-01-31T23:26:55.443Z,100041.87
2018-01-31T23:29:21.811Z,100045.36
2018-01-31T23:31:48.122Z,100033.55
2018-01-31T23:34:14.472Z,100039.60
2018-01-31T23:36:40.799Z,100043.82
2018-01-31T23:39:07.152Z,100046.98
2018-01-31T23:41:33.495Z,100045.92
2018-01-31T23:43:59.850Z,100042.37
2018-01-31T23:46:26.204Z,100038.16
2018-01-31T23:48:52.543Z,100036.65
2018-01-31T23:51:18.923Z,100041.95
2018-01-31T23:53:45.256Z,100041.45
2018-01-31T23:56:11.587Z,100041.22
2018-01-31T23:58:37.935Z,100035.02
